Latest Weather Observations for Tidbinbilla

IDN60801

Issued at 2:03 am EDT Saturday 29 February 2020 (issued every 10 minutes, with the page automatically refreshed every 10 minutes)

About weather observations | Map of weather stations | Latest weather observations for NSW | Other Formats
Station Details ID: 250069 Name: TIDBINBILLA (PCS) Lat: -35.46 Lon: 148.94 Height: 883.0 m

Portable automatic weather stations (PAWS) are operated by other organisations, such as Fire and Emergency Services, and are included here by agreement. Portable stations may be deployed to a location for a short period and their location may be subject to change without notice. Wind observations from these stations are provided from heights of either three (3) or ten (10) metres above ground level (AGL).

Data from the previous 72 hours. | See also: Recent months for locations in New South Wales
Date/Time
EDT
Temp
°C
App
Temp
°C
Dew
Point
°C
Rel
Hum
%
Delta-T
°C
Wind Press
QNH
hPa
Press
MSL
hPa
Rain since
9am
mm
Dir  Spd
km/h
Gust
km/h
Spd
kts
Gust
kts
29/01:50am 13.6 12.5 10.5 81 1.7 NE 7 11 4 6 1020.1 - 0.0
29/01:40am 13.6 12.5 10.5 81 1.7 ENE 7 9 4 5 1020.2 - 0.0
29/01:30am 13.6 12.5 10.5 81 1.7 ENE 7 9 4 5 1020.2 - 0.0
29/01:20am 13.7 12.6 10.5 81 1.7 ENE 7 9 4 5 1020.3 - 0.0
29/01:10am 13.7 12.2 10.5 81 1.7 NE 9 11 5 6 1020.4 - 0.0
29/01:00am 13.7 12.6 10.5 81 1.7 ENE 7 9 4 5 1020.4 - 0.0
29/12:50am 13.7 12.8 10.5 81 1.7 NE 6 7 3 4 1020.3 - 0.0
29/12:40am 13.7 12.8 10.5 81 1.7 NE 6 9 3 5 1020.3 - 0.0
29/12:30am 13.7 12.8 10.5 81 1.7 NNE 6 9 3 5 1020.2 - 0.0
29/12:20am 13.7 12.6 10.5 81 1.7 NNE 7 13 4 7 1020.3 - 0.0
29/12:10am 13.7 12.6 10.6 81 1.7 NNE 7 9 4 5 1020.2 - 0.0
29/12:00am 13.7 12.6 10.6 81 1.7 NNE 7 11 4 6 1020.2 - 0.0
 
Date/Time
EDT
Temp
°C
App
Temp
°C
Dew
Point
°C
Rel
Hum
%
Delta-T
°C
Wind Press
QNH
hPa
Press
MSL
hPa
Rain since
9am
mm
Dir  Spd
km/h
Gust
km/h
Spd
kts
Gust
kts
28/11:50pm 13.7 12.2 10.6 81 1.7 NNE 9 11 5 6 1020.2 - 0.0
28/11:40pm 13.7 12.2 10.6 81 1.7 NNE 9 13 5 7 1020.1 - 0.0
28/11:30pm 13.8 12.3 10.6 81 1.8 NE 9 13 5 7 1020.2 - 0.0
28/11:20pm 13.8 12.3 10.6 81 1.8 NE 9 11 5 6 1020.2 - 0.0
28/11:10pm 13.9 12.0 10.6 80 1.8 ENE 11 13 6 7 1020.1 - 0.0
28/11:00pm 13.9 11.3 10.6 80 1.8 ENE 15 15 8 8 1020.1 - 0.0
28/10:50pm 14.0 11.7 10.6 80 1.9 ENE 13 17 7 9 1020.0 - 0.0
28/10:40pm 14.1 11.8 10.6 79 1.9 ENE 13 15 7 8 1020.1 - 0.0
28/10:30pm 14.1 11.5 10.6 79 1.9 ENE 15 17 8 9 1020.0 - 0.0
28/10:20pm 14.3 11.7 10.7 79 2.0 ENE 15 15 8 8 1019.8 - 0.0
28/10:10pm 14.3 11.7 10.7 79 2.0 ENE 15 19 8 10 1019.7 - 0.0
28/10:00pm 14.5 11.5 10.8 78 2.0 ENE 17 19 9 10 1019.5 - 0.0
28/09:50pm 14.7 11.7 10.8 77 2.2 NE 17 19 9 10 1019.3 - 0.0
28/09:40pm 14.9 12.0 10.9 77 2.2 NE 17 20 9 11 1019.1 - 0.0
28/09:30pm 15.2 11.9 11.0 76 2.3 NE 19 19 10 10 1018.9 - 0.0
28/09:20pm 15.4 12.1 11.0 75 2.5 NE 19 22 10 12 1018.8 - 0.0
28/09:10pm 15.7 12.8 11.1 74 2.6 ENE 17 19 9 10 1018.6 - 0.0
28/09:00pm 15.9 13.1 11.2 73 2.6 ENE 17 20 9 11 1018.3 - 0.0
28/08:50pm 16.2 13.7 11.2 72 2.8 ENE 15 17 8 9 1018.1 - 0.0
28/08:40pm 16.6 14.5 11.3 71 3.0 ENE 13 17 7 9 1017.9 - 0.0
28/08:30pm 17.1 15.1 11.4 69 3.2 ENE 13 15 7 8 1017.6 - 0.0
28/08:20pm 17.5 14.3 11.4 67 3.5 ENE 19 22 10 12 1017.4 - 0.0
28/08:10pm 18.0 15.2 11.4 65 3.8 NE 17 19 9 10 1017.1 - 0.0
28/08:00pm 18.9 16.5 11.4 61 4.3 NE 15 22 8 12 1016.8 - 0.0
28/07:50pm 19.7 16.5 11.3 58 4.8 NE 19 20 10 11 1016.4 - 0.0
28/07:40pm 20.3 16.7 10.6 53 5.5 NE 20 24 11 13 1016.0 - 0.0
28/07:30pm 21.7 18.9 10.0 47 6.6 NNE 15 32 8 17 1015.6 - 0.0
28/07:20pm 22.8 20.2 6.2 34 8.8 N 9 13 5 7 1015.2 - 0.0
28/07:10pm 23.8 20.9 6.4 32 9.3 N 11 13 6 7 1015.1 - 0.0
28/07:00pm 24.6 21.8 7.0 32 9.6 N 11 11 6 6 1015.0 - 0.0
28/06:50pm 24.9 21.9 7.6 33 9.5 N 13 15 7 8 1014.9 - 0.0
28/06:40pm 25.0 22.2 6.8 31 9.9 N 11 13 6 7 1014.8 - 0.0
28/06:30pm 25.2 22.5 7.4 32 9.8 NNW 11 13 6 7 1014.8 - 0.0
28/06:20pm 25.3 22.8 8.0 33 9.6 N 11 15 6 8 1014.6 - 0.0
28/06:10pm 25.7 23.1 7.7 31 10.0 NNW 11 15 6 8 1014.4 - 0.0
28/06:00pm 25.5 22.4 7.1 31 10.1 N 13 17 7 9 1014.4 - 0.0
28/05:50pm 24.9 21.6 6.4 30 10.0 NNW 13 17 7 9 1014.2 - 0.0
28/05:40pm 24.5 21.2 6.5 31 9.7 N 13 17 7 9 1014.2 - 0.0
28/05:30pm 24.3 21.1 7.0 33 9.4 N 13 15 7 8 1014.1 - 0.0
28/05:20pm 24.2 20.5 6.1 31 9.7 N 15 20 8 11 1014.0 - 0.0
28/05:10pm 24.6 21.2 5.9 30 10.0 N 13 19 7 10 1014.0 - 0.0
28/05:00pm 25.4 22.5 6.4 29 10.3 N 11 17 6 9 1013.9 - 0.0
28/04:50pm 25.7 22.9 8.5 33 9.7 N 13 17 7 9 1013.8 - 0.0
28/04:40pm 24.9 21.5 7.5 33 9.6 N 15 19 8 10 1013.9 - 0.0
28/04:30pm 24.3 21.6 7.3 33 9.3 NNE 11 19 6 10 1013.9 - 0.0
28/04:20pm 24.3 21.4 6.3 31 9.7 NNE 11 20 6 11 1013.9 - 0.0
28/04:10pm 24.7 21.4 6.6 31 9.8 N 13 15 7 8 1013.9 - 0.0
28/04:00pm 24.7 22.0 5.8 29 10.1 N 9 13 5 7 1013.9 - 0.0
28/03:50pm 24.5 21.2 6.5 31 9.7 NNE 13 17 7 9 1013.9 - 0.0
28/03:40pm 24.7 21.1 5.1 28 10.3 NNE 13 17 7 9 1013.9 - 0.0
28/03:30pm 24.5 21.6 6.4 31 9.7 NNE 11 15 6 8 1014.0 - 0.0
28/03:20pm 24.0 20.5 5.3 30 9.8 NNE 13 19 7 10 1014.1 - 0.0
28/03:10pm 23.7 20.5 7.0 34 9.0 NE 13 17 7 9 1014.2 - 0.0
28/03:00pm 24.2 21.0 5.3 29 10.0 NNE 11 19 6 10 1014.4 - 0.0
28/02:50pm 23.9 20.8 5.7 31 9.6 NNE 11 19 6 10 1014.4 - 0.0
28/02:40pm 24.9 21.7 6.8 31 9.8 N 13 17 7 9 1014.5 - 0.0
28/02:30pm 24.5 22.0 6.5 31 9.7 NNE 9 17 5 9 1014.6 - 0.0
28/02:20pm 24.6 22.3 5.5 29 10.1 NNE 7 17 4 9 1014.6 - 0.0
28/02:10pm 23.5 19.7 4.0 28 10.0 NNE 13 20 7 11 1014.7 - 0.0
28/02:00pm 24.5 21.6 4.8 28 10.3 NNE 9 17 5 9 1014.7 - 0.0
28/01:50pm 23.7 20.7 6.0 32 9.4 N 11 17 6 9 1014.8 - 0.0
28/01:40pm 22.4 19.5 6.3 35 8.5 NE 11 17 6 9 1014.8 - 0.0
28/01:30pm 22.6 19.3 4.7 31 9.2 NNE 11 15 6 8 1014.8 - 0.0
28/01:20pm 21.8 18.2 2.8 28 9.4 NE 11 17 6 9 1014.9 - 0.0
28/01:10pm 22.0 18.3 2.3 27 9.7 NNE 11 15 6 8 1015.0 - 0.0
28/01:00pm 22.2 19.2 4.0 30 9.3 NNE 9 15 5 8 1015.0 - 0.0
28/12:50pm 22.1 18.6 5.4 33 8.7 N 13 17 7 9 1015.2 - 0.0
28/12:40pm 21.9 18.8 3.7 30 9.2 N 9 15 5 8 1015.1 - 0.0
28/12:30pm 22.7 19.2 3.5 28 9.7 N 11 13 6 7 1015.3 - 0.0
28/12:20pm 21.6 18.5 3.7 31 9.0 NNE 9 13 5 7 1015.3 - 0.0
28/12:10pm 22.0 18.3 2.3 27 9.7 N 11 15 6 8 1015.4 - 0.0
28/12:00pm 21.1 17.6 3.4 31 8.8 N 11 11 6 6 1015.3 - 0.0
28/11:50am 20.4 17.6 3.2 32 8.5 N 7 11 4 6 1015.4 - 0.0
28/11:40am 20.7 16.7 0.8 26 9.4 N 11 15 6 8 1015.4 - 0.0
28/11:30am 20.7 17.0 -0.2 24 9.7 N 9 15 5 8 1015.3 - 0.0
28/11:20am 20.5 17.2 2.6 30 8.8 N 9 11 5 6 1015.2 - 0.0
28/11:10am 19.1 15.9 -0.2 27 8.8 NE 6 9 3 5 1015.4 - 0.0
28/11:00am 18.7 14.7 0.8 30 8.3 NE 11 13 6 7 1015.2 - 0.0
28/10:50am 19.4 16.2 -0.5 26 9.1 NNW 6 9 3 5 1015.1 - 0.0
28/10:40am 18.5 16.0 1.3 31 8.1 NNW 4 6 2 3 1015.1 - 0.0
28/10:30am 18.3 15.3 0.8 31 8.1 NW 6 7 3 4 1015.1 - 0.0
28/10:20am 18.2 15.1 0.3 30 8.2 NNW 6 7 3 4 1015.1 - 0.0
28/10:10am 17.7 14.7 1.0 32 7.8 NNW 6 9 3 5 1015.0 - 0.0
28/10:00am 17.3 14.6 2.6 37 7.0 NW 6 7 3 4 1015.0 - 0.0
28/09:50am 17.1 14.4 2.9 38 6.8 NNW 6 7 3 4 1015.0 - 0.0
28/09:40am 16.5 13.7 3.2 41 6.4 NNW 7 11 4 6 1014.9 - 0.0
28/09:30am 16.2 13.3 2.5 39 6.5 NNW 7 9 4 5 1014.8 - 0.0
28/09:20am 16.4 13.7 2.4 39 6.6 N 6 9 3 5 1014.6 - 0.0
28/09:10am 15.5 13.0 1.4 38 6.5 N 4 6 2 3 1014.5 - 0.0
28/09:00am 14.8 13.0 0.9 39 6.3 CALM 0 2 0 1 1014.2 - 0.0
28/08:50am 13.9 11.5 -0.5 37 6.3 SSW 2 4 1 2 1014.2 - 0.0
28/08:40am 13.9 11.5 -0.5 37 6.3 SSW 2 4 1 2 1014.2 - 0.0
28/08:30am 13.9 11.5 -0.2 38 6.2 WNW 2 4 1 2 1014.0 - 0.0
28/08:20am 13.6 11.4 -1.9 34 6.5 CALM 0 2 0 1 1013.9 - 0.0
28/08:10am 12.8 10.6 -1.9 36 6.1 CALM 0 2 0 1 1013.9 - 0.0
28/08:00am 11.6 8.6 -1.5 40 5.5 NE 4 6 2 3 1013.8 - 0.0
28/07:50am 11.0 8.0 -2.0 40 5.3 NE 4 6 2 3 1013.7 - 0.0
28/07:40am 10.9 8.4 -1.1 43 5.0 S 2 4 1 2 1013.6 - 0.0
28/07:30am 10.5 7.8 -2.6 40 5.3 S 2 4 1 2 1013.4 - 0.0
28/07:20am 10.7 8.4 -2.4 40 5.3 CALM 0 0 0 0 1013.1 - 0.0
28/07:10am 10.6 8.2 -2.9 38 5.4 CALM 0 0 0 0 1013.1 - 0.0
28/07:00am 10.7 8.0 -2.8 38 5.4 N 2 4 1 2 1012.9 - 0.0
28/06:50am 10.8 8.4 -3.0 38 5.5 CALM 0 0 0 0 1012.8 - 0.0
28/06:40am 10.6 8.2 -2.9 38 5.4 CALM 0 2 0 1 1012.6 - 0.0
28/06:30am 10.4 7.6 -3.0 39 5.3 S 2 6 1 3 1012.6 - 0.0
28/06:20am 10.2 6.7 -2.5 41 5.1 S 6 6 3 3 1012.4 - 0.0
28/06:10am 10.6 8.0 -1.9 41 5.1 N 2 4 1 2 1012.4 - 0.0
28/06:00am 12.2 9.2 -1.9 37 5.9 SW 4 6 2 3 1012.1 - 0.0
28/05:50am 12.7 8.3 -2.8 34 6.3 S 11 13 6 7 1012.0 - 0.0
28/05:40am 12.3 8.8 -3.2 34 6.3 S 6 11 3 6 1011.7 - 0.0
28/05:30am 12.2 8.7 -3.1 34 6.2 S 6 9 3 5 1011.5 - 0.0
28/05:20am 12.2 8.6 -3.4 33 6.3 S 6 9 3 5 1011.7 - 0.0
28/05:10am 12.1 8.3 -3.5 33 6.2 S 7 9 4 5 1011.7 - 0.0
28/05:00am 11.5 8.0 -3.0 36 5.8 SSW 6 7 3 4 1011.8 - 0.0
28/04:50am 11.8 8.3 -3.1 35 6.0 SSW 6 7 3 4 1011.9 - 0.0
28/04:40am 11.3 8.1 -3.4 35 5.9 SSW 4 7 2 4 1012.0 - 0.0
28/04:30am 11.4 8.7 -2.7 37 5.7 WNW 2 4 1 2 1011.9 - 0.0
28/04:20am 12.1 9.0 -2.6 36 6.0 SW 4 7 2 4 1011.9 - 0.0
28/04:10am 12.1 8.0 -3.2 34 6.2 S 9 13 5 7 1011.8 - 0.0
28/04:00am 12.5 8.0 -2.9 34 6.3 S 11 13 6 7 1011.9 - 0.0
28/03:50am 12.8 8.7 -3.3 32 6.5 S 9 11 5 6 1011.9 - 0.0
28/03:40am 12.8 7.9 -3.4 32 6.6 S 13 17 7 9 1011.8 - 0.0
28/03:30am 12.9 7.6 -3.4 32 6.6 S 15 17 8 9 1012.1 - 0.0
28/03:20am 12.9 7.6 -3.5 32 6.6 S 15 17 8 9 1012.0 - 0.0
28/03:10am 13.1 7.8 -3.6 31 6.7 S 15 17 8 9 1012.0 - 0.0
28/03:00am 13.3 8.0 -3.9 30 6.9 S 15 19 8 10 1011.9 - 0.0
28/02:50am 13.3 8.0 -4.0 30 6.9 S 15 19 8 10 1011.9 - 0.0
28/02:40am 13.4 7.7 -4.1 29 7.0 SSW 17 20 9 11 1011.9 - 0.0
28/02:30am 13.1 7.3 -4.3 29 6.9 SSW 17 22 9 12 1012.1 - 0.0
28/02:20am 13.1 7.7 -4.2 30 6.9 SSW 15 17 8 9 1012.0 - 0.0
28/02:10am 13.2 7.8 -4.1 30 6.9 SSW 15 17 8 9 1012.1 - 0.0
28/02:00am 13.6 7.8 -4.3 28 7.2 SSW 17 19 9 10 1012.1 - 0.0
28/01:50am 13.6 8.2 -4.5 28 7.2 SSW 15 19 8 10 1011.9 - 0.0
28/01:40am 13.8 8.4 -4.5 28 7.3 S 15 19 8 10 1011.9 - 0.0
28/01:30am 13.8 8.4 -4.6 27 7.3 S 15 19 8 10 1012.0 - 0.0
28/01:20am 13.6 7.4 -4.5 28 7.2 S 19 20 10 11 1012.1 - 0.0
28/01:10am 13.2 7.8 -4.7 28 7.1 SSW 15 20 8 11 1012.0 - 0.0
28/01:00am 13.7 9.8 -4.5 28 7.3 SSW 7 9 4 5 1011.6 - 0.0
28/12:50am 14.2 9.9 -4.7 26 7.5 S 9 11 5 6 1011.8 - 0.0
28/12:40am 14.7 9.6 -4.8 25 7.8 S 13 17 7 9 1011.9 - 0.0
28/12:30am 14.8 9.0 -4.9 25 7.9 SSW 17 20 9 11 1012.2 - 0.0
28/12:20am 15.1 8.9 -5.2 24 8.1 S 19 20 10 11 1012.3 - 0.0
28/12:10am 15.2 8.8 -5.2 24 8.1 S 20 24 11 13 1012.4 - 0.0
28/12:00am 15.0 9.5 -5.6 23 8.1 S 15 20 8 11 1012.4 - 0.0
 
Date/Time
EDT
Temp
°C
App
Temp
°C
Dew
Point
°C
Rel
Hum
%
Delta-T
°C
Wind Press
QNH
hPa
Press
MSL
hPa
Rain since
9am
mm
Dir  Spd
km/h
Gust
km/h
Spd
kts
Gust
kts
27/11:50pm 14.5 10.1 -5.4 25 7.8 S 9 15 5 8 1012.6 - 0.0
27/11:40pm 14.6 9.9 -5.1 25 7.8 SSW 11 13 6 7 1012.6 - 0.0
27/11:30pm 14.7 10.4 -4.6 26 7.8 S 9 13 5 7 1012.5 - 0.0
27/11:20pm 14.8 10.9 -4.7 25 7.8 S 7 9 4 5 1012.4 - 0.0
27/11:10pm 15.1 10.4 -4.8 25 8.0 S 11 11 6 6 1012.5 - 0.0
27/11:00pm 15.1 10.8 -5.0 24 8.0 S 9 11 5 6 1012.6 - 0.0
27/10:50pm 15.2 10.9 -5.0 24 8.1 S 9 11 5 6 1012.4 - 0.0
27/10:40pm 15.2 11.4 -5.2 24 8.1 SSW 6 7 3 4 1012.4 - 0.0
27/10:30pm 15.7 11.3 -5.4 23 8.4 SSW 9 11 5 6 1012.2 - 0.0
27/10:20pm 15.7 11.0 -5.5 23 8.4 S 11 11 6 6 1012.2 - 0.0
27/10:10pm 15.8 11.1 -5.5 22 8.5 SSW 11 13 6 7 1012.1 - 0.0
27/10:00pm 15.8 11.0 -5.6 22 8.5 S 11 13 6 7 1011.9 - 0.0
27/09:50pm 16.1 11.7 -5.6 22 8.7 S 9 11 5 6 1011.9 - 0.0
27/09:40pm 16.4 12.0 -5.8 21 8.8 SSW 9 15 5 8 1011.7 - 0.0
27/09:30pm 16.7 12.3 -5.7 21 9.0 SW 9 13 5 7 1011.6 - 0.0
27/09:20pm 17.1 11.1 -6.2 20 9.3 SSW 17 19 9 10 1011.5 - 0.0
27/09:10pm 17.2 11.3 -6.1 20 9.3 SW 17 20 9 11 1011.4 - 0.0
27/09:00pm 17.4 11.0 -6.5 19 9.5 SSW 19 24 10 13 1011.1 - 0.0
27/08:50pm 17.2 11.7 -5.7 20 9.2 SW 15 19 8 10 1011.1 - 0.0
27/08:40pm 17.4 11.4 -6.6 19 9.5 SSW 17 19 9 10 1010.9 - 0.0
27/08:30pm 17.2 11.2 -6.2 19 9.3 SW 17 19 9 10 1010.8 - 0.0
27/08:20pm 17.3 11.7 -6.3 19 9.4 SW 15 17 8 9 1010.5 - 0.0
27/08:10pm 17.9 11.6 -5.9 19 9.6 SW 19 26 10 14 1010.3 - 0.0
27/08:00pm 18.3 11.3 -6.9 17 10.0 SW 22 28 12 15 1010.1 - 0.0
27/07:50pm 17.9 11.5 -6.5 18 9.7 SW 19 26 10 14 1010.0 - 0.0
27/07:40pm 18.3 12.4 -5.2 20 9.7 SW 17 20 9 11 1010.2 - 0.0
27/07:30pm 19.2 13.3 -5.8 18 10.2 SW 17 20 9 11 1010.2 - 0.0
27/07:20pm 20.6 14.3 -6.1 16 11.0 WSW 19 24 10 13 1010.0 - 0.0
27/07:10pm 21.2 15.3 -6.1 15 11.3 WSW 17 22 9 12 1010.1 - 0.0
27/07:00pm 21.6 16.1 -5.5 16 11.4 WSW 15 19 8 10 1010.1 - 0.0
27/06:50pm 21.9 15.7 -5.0 16 11.5 WSW 19 26 10 14 1010.1 - 0.0
27/06:40pm 22.2 16.5 -3.6 17 11.4 WSW 17 24 9 13 1010.0 - 0.0
27/06:30pm 22.3 16.1 -4.9 16 11.7 WSW 19 24 10 13 1009.8 - 0.0
27/06:20pm 22.5 16.1 -5.2 15 11.9 WSW 20 24 11 13 1009.6 - 0.0
27/06:10pm 23.0 17.2 -4.3 16 11.9 W 17 22 9 12 1009.6 - 0.0
27/06:00pm 23.3 17.9 -4.8 15 12.2 W 15 22 8 12 1009.4 - 0.0
27/05:50pm 23.2 18.0 -2.6 18 11.7 WSW 15 19 8 10 1009.3 - 0.0
27/05:40pm 23.1 17.6 -2.3 18 11.5 WSW 17 20 9 11 1009.2 - 0.0
27/05:30pm 23.4 17.9 -1.8 18 11.6 WSW 17 22 9 12 1009.3 - 0.0
27/05:20pm 23.7 18.0 -0.8 19 11.5 WSW 19 26 10 14 1009.3 - 0.0
27/05:10pm 23.8 18.6 0.1 21 11.3 WSW 17 22 9 12 1009.3 - 0.0
27/05:00pm 23.7 18.1 -0.3 20 11.4 WSW 19 26 10 14 1009.1 - 0.0
27/04:50pm 24.1 19.0 0.6 21 11.4 WSW 17 28 9 15 1009.3 - 0.0
27/04:40pm 24.1 19.0 1.0 22 11.3 WSW 17 22 9 12 1009.5 - 0.0
27/04:30pm 24.3 19.6 1.1 22 11.3 WSW 15 20 8 11 1009.5 - 0.0
27/04:20pm 24.2 19.1 0.7 21 11.4 W 17 22 9 12 1009.5 - 0.0
27/04:10pm 24.5 19.5 1.1 21 11.5 WSW 17 24 9 13 1009.6 - 0.0
27/04:00pm 24.3 19.7 1.8 23 11.1 W 15 20 8 11 1009.6 - 0.0
27/03:50pm 24.3 20.0 3.1 25 10.7 WSW 15 22 8 12 1009.9 - 0.0
27/03:40pm 23.8 18.6 2.7 25 10.6 W 19 22 10 12 1009.9 - 0.0
27/03:30pm 23.9 19.0 1.8 23 10.9 W 17 20 9 11 1010.1 - 0.0
27/03:20pm 24.2 19.3 2.0 23 11.0 W 17 20 9 11 1010.3 - 0.0
27/03:10pm 24.2 19.7 2.0 23 11.0 W 15 17 8 9 1010.4 - 0.0
27/03:00pm 23.8 19.1 0.6 21 11.2 W 15 22 8 12 1010.5 - 0.0
27/02:50pm 23.8 19.1 0.9 22 11.1 W 15 20 8 11 1010.6 - 0.0
27/02:40pm 23.5 18.0 0.7 22 11.0 WSW 19 24 10 13 1010.9 - 0.0
27/02:30pm 23.2 17.0 -0.5 20 11.2 WSW 22 30 12 16 1011.0 - 0.0
27/02:20pm 23.2 16.8 -1.4 19 11.4 SW 22 26 12 14 1011.0 - 0.0
27/02:10pm 22.9 16.5 0.8 23 10.6 SW 24 30 13 16 1011.1 - 0.0
27/02:00pm 22.9 16.4 0.3 22 10.8 SW 24 28 13 15 1011.3 - 0.0
27/01:50pm 22.6 17.3 2.0 25 10.1 SSW 19 24 10 13 1011.3 - 0.0
27/01:40pm 22.7 17.1 1.0 24 10.5 SW 20 26 11 14 1011.4 - 0.0
27/01:30pm 22.4 17.3 3.0 28 9.7 SW 19 22 10 12 1011.6 - 0.0
27/01:20pm 21.8 15.4 1.1 25 9.9 SW 24 28 13 15 1011.7 - 0.0
27/01:10pm 21.6 15.8 2.1 27 9.5 SW 22 30 12 16 1011.8 - 0.0
27/01:00pm 21.4 17.0 4.5 33 8.6 SW 17 28 9 15 1012.1 - 0.0
27/12:50pm 21.0 15.9 4.3 33 8.5 SW 20 26 11 14 1012.3 - 0.0
27/12:40pm 21.3 17.8 5.4 35 8.2 WSW 13 19 7 10 1012.5 - 0.0
27/12:30pm 21.2 18.4 7.1 40 7.5 WSW 11 17 6 9 1012.6 - 0.0
27/12:20pm 21.1 18.6 4.7 34 8.4 SW 7 13 4 7 1012.7 - 0.0
27/12:10pm 20.7 17.3 3.8 33 8.5 WSW 11 19 6 10 1012.8 - 0.0
27/12:00pm 20.8 18.8 6.4 39 7.6 WNW 6 13 3 7 1012.9 - 0.0
27/11:50am 19.9 17.5 5.4 38 7.5 WNW 7 15 4 8 1012.9 - 0.0
27/11:40am 19.2 17.2 7.0 45 6.4 NNE 7 15 4 8 1013.0 - 0.0
27/11:30am 18.2 15.6 7.7 50 5.6 NNE 11 15 6 8 1013.1 - 0.0
27/11:20am 18.1 15.2 6.6 47 6.0 NNE 11 19 6 10 1013.2 - 0.0
27/11:10am 18.4 16.2 7.7 49 5.7 NNE 9 15 5 8 1013.3 - 0.0
27/11:00am 17.9 15.1 7.1 49 5.7 NNE 11 15 6 8 1013.3 - 0.0
27/10:50am 17.5 15.2 7.5 52 5.3 N 9 17 5 9 1013.4 - 0.0
27/10:40am 17.2 15.1 6.8 50 5.4 N 7 15 4 8 1013.5 - 0.0
27/10:30am 16.5 13.7 6.8 52 5.0 N 11 15 6 8 1013.5 - 0.0
27/10:20am 15.8 12.9 8.1 60 4.1 N 13 17 7 9 1013.7 - 0.0
27/10:10am 15.3 12.4 8.1 62 3.8 NNE 13 15 7 8 1013.7 - 0.0
27/10:00am 14.8 11.8 9.2 69 3.0 NNE 15 19 8 10 1013.9 - 0.0
27/09:50am 14.9 11.6 8.0 63 3.6 NNE 15 19 8 10 1013.9 - 0.0
27/09:40am 14.4 11.6 8.7 68 3.0 NNE 13 17 7 9 1014.0 - 0.0
27/09:30am 13.8 10.7 8.9 72 2.6 N 15 17 8 9 1014.0 - 0.0
27/09:20am 13.7 10.8 9.5 76 2.3 N 15 19 8 10 1014.0 - 0.0
27/09:10am 13.8 11.1 9.0 73 2.5 NNE 13 15 7 8 1014.0 - 0.0
27/09:00am 13.6 11.5 9.7 77 2.1 NNE 11 13 6 7 1014.1 - 0.0
27/08:50am 13.5 12.0 9.0 74 2.4 NNE 7 9 4 5 1014.2 - 0.0
27/08:40am 12.3 10.7 10.1 86 1.2 N 9 13 5 7 1014.2 - 0.0
27/08:30am 12.1 10.5 10.2 88 1.0 NNE 9 11 5 6 1014.1 - 0.0
27/08:20am 11.6 9.9 10.0 90 0.9 NNE 9 11 5 6 1014.0 - 0.0
27/08:10am 11.4 9.4 10.3 93 0.6 NNE 11 13 6 7 1014.0 - 0.0
27/08:00am 11.5 10.0 10.4 93 0.6 NNE 9 13 5 7 1013.9 - 0.0
27/07:50am 11.5 9.9 10.3 92 0.6 N 9 13 5 7 1013.8 - 0.0
27/07:40am 11.6 10.6 10.3 92 0.7 N 6 9 3 5 1013.7 - 0.0
27/07:30am 11.6 10.0 10.2 91 0.8 N 9 9 5 5 1013.8 - 0.0
27/07:20am 11.6 9.9 10.0 90 0.9 N 9 11 5 6 1013.7 - 0.0
27/07:10am 11.5 9.8 10.0 90 0.8 N 9 13 5 7 1013.6 - 0.0
27/07:00am 11.6 10.5 9.8 89 1.0 N 6 7 3 4 1013.6 - 0.0
27/06:50am 11.6 10.9 9.9 89 0.9 N 4 7 2 4 1013.5 - 0.0
27/06:40am 11.7 10.4 10.0 89 0.9 NNE 7 9 4 5 1013.4 - 0.0
27/06:30am 11.6 10.3 9.9 89 0.9 NNE 7 9 4 5 1013.4 - 0.0
27/06:20am 11.6 10.5 9.8 89 1.0 N 6 7 3 4 1013.3 - 0.0
27/06:10am 11.5 10.3 9.7 89 1.0 NE 6 7 3 4 1013.3 - 0.0
27/06:00am 11.4 10.2 9.7 89 0.9 NNE 6 9 3 5 1013.2 - 0.0
27/05:50am 11.6 10.4 9.6 87 1.1 NNE 6 7 3 4 1013.2 - 0.0
27/05:40am 11.7 10.3 9.5 86 1.2 NE 7 9 4 5 1013.0 - 0.0
27/05:30am 11.8 10.4 9.5 86 1.2 ENE 7 9 4 5 1013.0 - 0.0
27/05:20am 11.9 10.4 9.1 83 1.5 ENE 7 9 4 5 1012.9 - 0.0
27/05:10am 11.9 9.8 8.3 78 1.9 ENE 9 11 5 6 1012.9 - 0.0
27/05:00am 11.7 10.0 7.7 76 2.0 NNE 6 7 3 4 1012.8 - 0.0
27/04:50am 11.6 11.1 7.9 78 1.9 CALM 0 4 0 2 1012.8 - 0.0
27/04:40am 11.7 11.2 7.7 76 2.0 CALM 0 2 0 1 1012.7 - 0.0
27/04:30am 11.7 11.2 7.8 77 2.0 CALM 0 2 0 1 1012.7 - 0.0
27/04:20am 11.7 11.1 7.6 76 2.1 CALM 0 2 0 1 1012.7 - 0.0
27/04:10am 11.5 10.6 7.6 77 2.0 SSW 2 4 1 2 1012.8 - 0.0
27/04:00am 11.4 10.5 7.6 77 1.9 SSW 2 2 1 1 1012.8 - 0.0
27/03:50am 11.3 10.4 7.8 79 1.8 SW 2 6 1 3 1012.8 - 0.0
27/03:40am 11.5 10.6 7.7 77 1.9 SSW 2 6 1 3 1012.8 - 0.0
27/03:30am 11.5 11.0 7.7 77 1.9 CALM 0 2 0 1 1012.8 - 0.0
27/03:20am 11.5 10.6 7.7 77 1.9 SSW 2 2 1 1 1012.9 - 0.0
27/03:10am 11.3 10.7 7.6 78 1.9 CALM 0 0 0 0 1012.8 - 0.0
27/03:00am 11.2 10.6 7.6 78 1.8 CALM 0 0 0 0 1012.7 - 0.0
27/02:50am 11.2 10.7 7.8 79 1.7 CALM 0 0 0 0 1012.7 - 0.0
27/02:40am 11.3 10.8 7.7 78 1.8 CALM 0 2 0 1 1012.8 - 0.0
27/02:30am 11.3 10.4 7.7 78 1.8 S 2 4 1 2 1012.8 - 0.0
27/02:20am 11.5 10.7 8.0 79 1.8 SSW 2 2 1 1 1012.9 - 0.0
27/02:10am 11.7 10.5 8.1 78 1.9 SW 4 6 2 3 1013.0 - 0.0
27/02:00am 11.9 11.4 8.0 77 2.0 CALM 0 4 0 2 1013.0 - 0.0
27/01:50am 11.8 11.4 8.1 78 1.9 CALM 0 0 0 0 1013.1 - 0.0
27/01:40am 11.8 11.3 7.8 76 2.0 CALM 0 0 0 0 1013.1 - 0.0
27/01:30am 11.6 11.1 7.8 77 1.9 CALM 0 0 0 0 1013.2 - 0.0
27/01:20am 11.5 11.0 7.8 78 1.9 CALM 0 0 0 0 1013.1 - 0.0
27/01:10am 11.5 11.0 7.7 77 1.9 CALM 0 2 0 1 1013.1 - 0.0
27/01:00am 11.5 10.6 7.7 77 1.9 S 2 4 1 2 1013.0 - 0.0
27/12:50am 11.6 10.7 7.8 77 1.9 SSW 2 4 1 2 1013.0 - 0.0
27/12:40am 11.7 10.4 7.8 77 2.0 SSW 4 6 2 3 1012.9 - 0.0
27/12:30am 11.6 10.0 7.8 77 1.9 S 6 7 3 4 1012.7 - 0.0
27/12:20am 11.7 9.9 7.8 77 2.0 S 7 7 4 4 1012.7 - 0.0
27/12:10am 11.7 10.1 7.9 77 1.9 S 6 7 3 4 1012.7 - 0.0
27/12:00am 11.9 11.1 8.0 77 2.0 SSW 2 6 1 3 1012.8 - 0.0
 
Date/Time
EDT
Temp
°C
App
Temp
°C
Dew
Point
°C
Rel
Hum
%
Delta-T
°C
Wind Press
QNH
hPa
Press
MSL
hPa
Rain since
9am
mm
Dir  Spd
km/h
Gust
km/h
Spd
kts
Gust
kts
26/11:50pm 12.4 11.6 8.0 74 2.3 W 2 6 1 3 1012.6 - 0.0
26/11:40pm 12.7 11.1 7.8 72 2.5 - 6 11 3 6 1012.7 - 0.0
26/11:30pm 12.7 10.4 7.5 70 2.7 SE 9 13 5 7 1012.7 - 0.0
26/11:20pm 12.5 10.9 7.8 73 2.4 ESE 6 7 3 4 1012.7 - 0.0
26/11:10pm 12.5 11.7 8.0 74 2.3 E 2 4 1 2 1012.6 - 0.0
26/11:00pm 12.6 11.8 8.1 74 2.3 SSE 2 4 1 2 1012.5 - 0.0
26/10:50pm 12.8 11.6 8.1 73 2.4 SSW 4 6 2 3 1012.5 - 0.0
26/10:40pm 13.3 12.1 8.2 71 2.7 WSW 4 7 2 4 1012.4 - 0.0
26/10:30pm 13.7 11.9 8.1 69 2.9 SSW 7 9 4 5 1012.2 - 0.0
26/10:20pm 14.4 12.8 8.0 65 3.3 SSE 6 7 3 4 1011.9 - 0.0
26/10:10pm 15.5 13.9 8.7 64 3.6 WNW 7 9 4 5 1011.8 - 0.0
26/10:00pm 16.9 15.5 7.2 52 5.1 WSW 4 6 2 3 1011.7 - 0.0
26/09:50pm 17.2 15.8 7.2 51 5.2 SSE 4 7 2 4 1011.6 - 0.0
26/09:40pm 17.5 15.4 6.7 49 5.6 SSW 7 15 4 8 1011.5 - 0.0
26/09:30pm 17.5 14.7 6.8 49 5.6 SSW 11 15 6 8 1011.4 - 0.0
26/09:20pm 17.3 13.7 6.8 50 5.5 SW 15 19 8 10 1011.2 - 0.0
26/09:10pm 17.2 13.3 7.0 51 5.3 SW 17 19 9 10 1011.0 - 0.0
26/09:00pm 17.5 14.4 7.2 51 5.4 WSW 13 17 7 9 1011.0 - 0.0
26/08:50pm 17.9 15.5 7.1 49 5.7 WSW 9 13 5 7 1011.0 - 0.0
26/08:40pm 18.1 16.1 7.0 48 5.8 SW 7 9 4 5 1010.9 - 0.0
26/08:30pm 18.7 16.7 6.9 46 6.2 WSW 7 9 4 5 1010.5 - 0.0
26/08:20pm 19.1 16.6 6.7 44 6.5 WSW 9 15 5 8 1010.3 - 0.0
26/08:10pm 19.2 16.7 6.6 44 6.6 WSW 9 15 5 8 1010.0 - 0.0
26/08:00pm 19.5 16.6 6.4 42 6.8 WSW 11 15 6 8 1009.8 - 0.0
26/07:50pm 19.8 16.9 6.4 41 7.0 WSW 11 13 6 7 1009.6 - 0.0
26/07:40pm 20.4 17.8 6.1 39 7.5 W 9 15 5 8 1009.6 - 0.0
26/07:30pm 21.1 17.3 5.8 37 8.0 WSW 15 20 8 11 1009.4 - 0.0
26/07:20pm 22.0 17.1 5.0 33 8.8 SW 20 26 11 14 1009.2 - 0.0
26/07:10pm 22.6 18.3 5.3 32 9.0 SW 17 22 9 12 1009.1 - 0.0
26/07:00pm 23.0 18.2 4.7 30 9.5 WSW 19 24 10 13 1009.0 - 0.0
26/06:50pm 23.5 18.6 5.2 30 9.6 WSW 20 24 11 13 1008.8 - 0.0
26/06:40pm 23.8 18.9 4.9 29 9.9 SW 20 28 11 15 1008.6 - 0.0
26/06:30pm 24.0 19.5 4.2 27 10.2 WSW 17 26 9 14 1008.4 - 0.0
26/06:20pm 24.1 18.6 4.0 27 10.3 WSW 22 28 12 15 1008.3 - 0.0
26/06:10pm 24.6 20.0 3.8 26 10.7 WSW 17 20 9 11 1008.2 - 0.0
26/06:00pm 24.6 19.8 4.4 27 10.5 W 19 24 10 13 1008.1 - 0.0
26/05:50pm 24.9 20.7 3.9 25 10.8 WSW 15 19 8 10 1008.0 - 0.0
26/05:40pm 25.1 20.3 2.8 23 11.3 WSW 17 26 9 14 1007.9 - 0.0
26/05:30pm 25.2 20.9 3.0 23 11.3 WSW 15 22 8 12 1008.0 - 0.0
26/05:20pm 25.1 19.8 1.7 21 11.6 WSW 19 28 10 15 1008.0 - 0.0
26/05:10pm 25.4 20.4 1.3 20 11.9 WSW 17 30 9 16 1007.9 - 0.0
26/05:00pm 25.1 19.2 1.5 21 11.7 WSW 22 30 12 16 1008.0 - 0.0
26/04:50pm 25.4 19.8 1.0 20 12.0 WSW 20 28 11 15 1007.9 - 0.0
26/04:40pm 25.7 19.0 1.4 20 12.1 SW 26 35 14 19 1007.9 - 0.0
26/04:30pm 25.9 19.6 1.4 20 12.2 SW 24 39 13 21 1007.8 - 0.0
26/04:20pm 26.0 19.7 1.3 20 12.3 SW 24 39 13 21 1007.9 - 0.0
26/04:10pm 25.7 18.7 1.7 21 12.0 SW 28 41 15 22 1007.9 - 0.0
26/04:00pm 25.9 19.3 2.1 21 12.0 SW 26 33 14 18 1008.1 - 0.0
26/03:50pm 25.5 18.7 3.0 23 11.5 WSW 28 43 15 23 1008.2 - 0.0
26/03:40pm 25.6 17.9 3.5 24 11.4 SW 33 44 18 24 1008.2 - 0.0
26/03:30pm 25.8 20.0 4.4 25 11.2 W 24 32 13 17 1008.0 - 0.0
26/03:20pm 25.5 18.6 4.6 26 11.0 W 30 35 16 19 1008.1 - 0.0
26/03:10pm 25.5 18.8 5.5 27 10.7 WSW 30 46 16 25 1007.9 - 0.0
26/03:00pm 26.1 21.5 6.6 28 10.6 WSW 20 35 11 19 1008.2 - 0.0
26/02:50pm 25.2 19.9 8.6 35 9.3 WSW 26 33 14 18 1008.0 - 0.0
26/02:40pm 25.0 16.8 8.0 34 9.4 SW 41 57 22 31 1008.4 - 0.0
26/02:30pm 24.8 16.0 7.4 33 9.5 SW 43 56 23 30 1007.9 - 0.0
26/02:20pm 24.6 15.6 7.2 32 9.5 SSW 44 52 24 28 1008.1 - 0.0
26/02:10pm 24.4 15.5 6.9 32 9.5 WSW 43 56 23 30 1008.3 - 0.0
26/02:00pm 24.7 17.6 8.1 34 9.2 WSW 35 50 19 27 1007.9 - 0.0
26/01:50pm 25.3 18.7 8.7 35 9.3 WSW 33 52 18 28 1008.1 - 0.0
26/01:40pm 25.2 19.2 8.5 34 9.4 SW 30 46 16 25 1007.4 - 0.0
26/01:30pm 24.8 20.1 7.9 34 9.4 WSW 22 33 12 18 1007.9 - 0.0
26/01:20pm 24.6 17.9 7.2 32 9.5 WSW 32 43 17 23 1007.9 - 0.0
26/01:10pm 24.5 18.2 7.6 34 9.3 SW 30 37 16 20 1007.9 - 0.0
26/01:00pm 24.3 17.2 6.5 32 9.6 SW 33 43 18 23 1007.8 - 0.0
26/12:50pm 24.3 18.4 7.6 34 9.2 SW 28 44 15 24 1008.1 - 0.0
26/12:40pm 24.1 17.2 8.8 37 8.6 SW 35 50 19 27 1008.4 - 0.0
26/12:30pm 23.9 18.4 10.6 43 7.7 SW 30 43 16 23 1008.0 - 0.0
26/12:20pm 24.1 20.8 11.7 45 7.3 WSW 20 37 11 20 1008.5 - 0.0
26/12:10pm 23.9 22.6 12.5 49 6.8 WSW 11 17 6 9 1008.5 - 0.0
26/12:00pm 23.4 20.6 12.7 51 6.4 W 19 32 10 17 1008.7 - 0.0
26/11:50am 23.4 21.4 12.8 51 6.3 WSW 15 22 8 12 1008.6 - 0.0
26/11:40am 22.6 20.8 13.2 55 5.6 W 15 22 8 12 1009.0 - 0.0
26/11:30am 21.7 18.9 13.1 58 5.1 WSW 20 32 11 17 1009.2 - 0.0
26/11:20am 21.7 20.8 13.7 60 4.8 WSW 11 28 6 15 1009.3 - 0.0
26/11:10am 21.9 21.2 13.3 58 5.1 SSE 9 22 5 12 1009.2 - 0.0
26/11:00am 21.9 21.4 13.9 60 4.8 NNW 9 19 5 10 1009.7 - 0.0
26/10:50am 22.3 22.0 14.3 60 4.9 WSW 9 17 5 9 1009.6 - 0.0
26/10:40am 22.7 22.7 14.1 58 5.2 W 7 15 4 8 1009.6 - 0.0
26/10:30am 22.2 22.6 16.2 69 3.8 WNW 9 17 5 9 1009.7 - 0.0
26/10:20am 20.6 18.7 14.3 67 3.8 W 17 24 9 13 1009.9 - 0.0
26/10:10am 20.9 20.6 14.3 66 4.0 WNW 9 20 5 11 1010.1 - 0.0
26/10:00am 20.5 20.1 14.1 66 3.9 W 9 11 5 6 1010.1 - 0.6
26/09:50am 19.9 18.2 15.7 77 2.6 N 19 28 10 15 1010.4 - 0.6
26/09:40am 19.7 17.4 14.6 72 3.1 N 20 30 11 16 1010.5 - 0.6
26/09:30am 19.4 19.7 15.0 75 2.7 W 7 15 4 8 1010.5 - 0.6
26/09:20am 19.0 18.0 14.5 75 2.7 WNW 13 19 7 10 1010.6 - 0.6
26/09:10am 18.8 18.1 15.3 80 2.1 W 13 19 7 10 1010.6 - 0.6
26/09:00am 18.7 18.2 15.8 83 1.8 W 13 19 7 10 1010.8 - 0.6
26/08:50am 18.7 16.4 14.2 75 2.7 W 19 28 10 15 1011.1 - 0.4
26/08:40am 18.3 16.4 14.2 77 2.5 WSW 17 28 9 15 1011.5 - 0.4
26/08:30am 19.2 16.8 14.5 74 2.8 W 20 37 11 20 1011.5 - 0.4
26/08:20am 19.1 17.2 14.1 73 3.0 W 17 20 9 11 1011.4 - 0.4
26/08:10am 18.8 16.9 14.3 75 2.7 SW 17 26 9 14 1011.6 - 0.4
26/08:00am 18.7 17.3 14.5 76 2.5 WSW 15 20 8 11 1011.6 - 0.4
26/07:50am 18.4 17.1 14.7 79 2.2 WSW 15 26 8 14 1011.5 - 0.4
26/07:40am 18.4 17.6 14.1 76 2.6 WSW 11 19 6 10 1011.6 - 0.2
26/07:30am 19.0 17.2 15.5 80 2.1 W 19 28 10 15 1011.5 - 0.2
26/07:20am 19.5 18.6 14.9 75 2.8 W 13 20 7 11 1011.4 - 0.0
26/07:10am 20.2 18.6 13.9 67 3.8 WNW 15 33 8 18 1011.5 - 0.0
26/07:00am 20.3 18.6 13.6 65 4.0 WNW 15 26 8 14 1011.4 - 0.0
26/06:50am 20.4 18.3 13.5 64 4.1 WNW 17 20 9 11 1011.2 - 0.0
26/06:40am 20.6 18.1 13.6 64 4.2 NW 19 26 10 14 1011.4 - 0.0
26/06:30am 20.6 18.4 13.2 62 4.4 WNW 17 24 9 13 1011.5 - 0.0
26/06:20am 20.6 18.8 13.3 63 4.3 W 15 19 8 10 1011.4 - 0.0
26/06:10am 21.0 17.4 13.0 60 4.7 W 24 39 13 21 1011.4 - 0.0
26/06:00am 20.9 17.9 12.7 59 4.8 W 20 24 11 13 1011.5 - 0.0
26/05:50am 20.8 17.8 12.6 59 4.8 W 20 28 11 15 1011.4 - 0.0
26/05:40am 20.6 19.0 12.7 60 4.7 W 13 19 7 10 1011.4 - 0.0
26/05:30am 21.0 18.2 12.7 59 4.9 W 19 30 10 16 1011.5 - 0.0
26/05:20am 20.9 18.5 12.6 59 4.9 W 17 26 9 14 1011.5 - 0.0
26/05:10am 21.0 18.2 12.5 58 5.0 W 19 28 10 15 1011.6 - 0.0
26/05:00am 20.8 19.1 12.4 58 4.9 W 13 15 7 8 1011.6 - 0.0
26/04:50am 20.8 18.7 12.3 58 5.0 W 15 20 8 11 1011.6 - 0.0
26/04:40am 20.9 17.9 12.1 57 5.1 NW 19 24 10 13 1011.6 - 0.0
26/04:30am 20.1 19.5 12.3 61 4.6 NW 7 17 4 9 1011.6 - 0.0
26/04:20am 19.9 18.7 11.7 59 4.7 NNW 9 13 5 7 1011.6 - 0.0
26/04:10am 20.1 19.3 11.8 59 4.8 NW 7 11 4 6 1011.6 - 0.0
26/04:00am 20.2 19.4 11.8 58 4.9 N 7 11 4 6 1011.7 - 0.0
26/03:50am 20.3 19.6 11.9 58 4.9 N 7 13 4 7 1011.7 - 0.0
26/03:40am 20.8 20.2 11.7 56 5.3 ENE 6 9 3 5 1011.8 - 0.0
26/03:30am 20.7 20.0 11.3 55 5.4 NW 6 11 3 6 1012.1 - 0.0
26/03:20am 20.4 19.7 11.5 56 5.1 N 6 6 3 3 1012.3 - 0.0
26/03:10am 20.8 20.5 11.4 55 5.4 NNW 4 9 2 5 1012.3 - 0.0
26/03:00am 20.8 20.9 11.4 55 5.4 NNE 2 6 1 3 1012.4 - 0.0
26/02:50am 21.0 20.0 11.1 53 5.7 NW 7 13 4 7 1012.5 - 0.0
26/02:40am 20.5 19.5 11.1 54 5.4 WNW 7 13 4 7 1012.5 - 0.0
26/02:30am 20.6 19.7 11.2 55 5.4 N 7 13 4 7 1012.5 - 0.0
26/02:20am 20.8 19.2 11.5 55 5.4 N 11 13 6 7 1012.7 - 0.0
26/02:10am 21.5 19.4 11.3 52 5.9 N 13 17 7 9 1012.8 - 0.0

Other formats

Comma delimited format used in spreadsheet applications
http://www.bom.gov.au/fwo/IDN60801/IDN60801.99762.axf

JavaScript Object Notation format (JSON) in row-major order
http://www.bom.gov.au/fwo/IDN60801/IDN60801.99762.json

Data quality

Most of these data are generated automatically and are frequently updated. Quality checks on data are not normally performed. It is possible for incorrect values to appear. Refer to information at About Latest Weather Observations and please check the disclaimer before using these data.